Time;durP1;ratioP1;P1;durP2;ratioP2;P2;SDS_P1;SDS_P2;PMS_P1;PMS_P2;Temp;Humidity;BMP_temperature;BMP_pressure;BME280_temperature;BME280_humidity;BME280_pressure;Samples;Min_cycle;Max_cycle;Signal;HPM_P1;HPM_P2
2021/11/04 00:02:47;;;;;;;1.88;1.13;;;11.90;99.90;;;;;;5070213;28;20090;-70
2021/11/04 00:05:52;;;;;;;3.03;0.70;;;11.80;99.90;;;;;;5070386;28;20044;-70
2021/11/04 00:08:56;;;;;;;3.88;0.70;;;11.80;99.90;;;;;;5069804;28;20040;-71
2021/11/04 00:12:02;;;;;;;2.70;0.50;;;11.80;99.90;;;;;;5068799;28;20500;-71
2021/11/04 00:15:07;;;;;;;2.85;0.80;;;11.80;99.90;;;;;;5070306;28;20517;-71
2021/11/04 00:18:11;;;;;;;1.15;0.60;;;11.80;99.90;;;;;;5069757;28;20055;-70
2021/11/04 00:21:15;;;;;;;6.43;0.63;;;11.70;99.90;;;;;;5070690;28;20063;-71
2021/11/04 00:24:19;;;;;;;3.05;0.70;;;11.70;99.90;;;;;;5070478;28;20399;-71
2021/11/04 00:27:23;;;;;;;5.10;0.85;;;11.70;99.90;;;;;;5070222;28;20051;-71
2021/11/04 00:30:27;;;;;;;2.88;0.70;;;11.60;99.90;;;;;;5069861;28;20055;-71
2021/11/04 00:33:36;;;;;;;3.03;0.90;;;11.50;99.90;;;;;;5069476;28;20410;-70
2021/11/04 00:36:40;;;;;;;5.75;1.90;;;11.30;99.90;;;;;;5070482;28;20043;-71
2021/11/04 00:39:44;;;;;;;2.22;0.47;;;11.30;99.90;;;;;;5070037;28;20039;-71
2021/11/04 00:42:48;;;;;;;1.90;0.63;;;11.30;99.90;;;;;;5070377;28;20051;-70
2021/11/04 00:45:52;;;;;;;3.25;0.80;;;11.30;99.90;;;;;;5070747;28;20517;-70
2021/11/04 00:48:56;;;;;;;2.25;0.88;;;11.40;99.90;;;;;;5068767;28;20048;-70
2021/11/04 00:52:00;;;;;;;1.40;0.73;;;11.40;99.90;;;;;;5069847;28;20043;-70
2021/11/04 00:55:06;;;;;;;1.85;0.60;;;11.50;99.90;;;;;;5070190;28;20048;-70
2021/11/04 00:58:10;;;;;;;5.70;0.73;;;11.50;99.90;;;;;;5069372;28;20040;-70
2021/11/04 01:01:18;;;;;;;0.73;0.57;;;11.50;99.90;;;;;;5069856;28;20056;-69
2021/11/04 01:04:22;;;;;;;3.53;0.60;;;11.60;99.90;;;;;;5070005;28;20055;-69
2021/11/04 01:07:26;;;;;;;4.32;0.60;;;11.50;99.90;;;;;;5069916;28;20414;-70
2021/11/04 01:10:30;;;;;;;4.55;0.80;;;11.60;99.90;;;;;;5069890;28;20039;-69
2021/11/04 01:13:35;;;;;;;2.63;0.68;;;11.50;99.90;;;;;;5069388;28;20054;-70
2021/11/04 01:16:39;;;;;;;3.15;0.68;;;11.50;99.90;;;;;;5069910;28;20032;-69
2021/11/04 01:19:44;;;;;;;1.10;0.43;;;11.50;99.90;;;;;;5069384;28;20039;-69
2021/11/04 01:22:49;;;;;;;1.73;0.50;;;11.60;99.90;;;;;;5069998;28;20044;-69
2021/11/04 01:25:53;;;;;;;1.60;0.60;;;11.60;99.90;;;;;;5073301;28;20039;-69
2021/11/04 01:28:57;;;;;;;3.72;0.82;;;11.60;99.90;;;;;;5072735;28;20052;-69
2021/11/04 01:32:01;;;;;;;8.70;0.77;;;11.60;99.90;;;;;;5072970;28;20391;-69
2021/11/04 01:35:07;;;;;;;3.28;0.88;;;11.60;99.90;;;;;;5072976;28;20502;-69
2021/11/04 01:38:14;;;;;;;2.80;0.60;;;11.50;99.90;;;;;;5072641;28;20589;-69
2021/11/04 01:41:18;;;;;;;5.43;1.52;;;11.50;99.90;;;;;;5072573;28;20039;-68
2021/11/04 01:44:22;;;;;;;3.05;0.70;;;11.60;99.90;;;;;;5072892;28;20043;-68
2021/11/04 01:47:26;;;;;;;4.47;0.50;;;11.70;99.90;;;;;;5072913;28;20402;-68
2021/11/04 01:50:31;;;;;;;4.53;0.98;;;11.70;99.90;;;;;;5072713;28;20090;-69
2021/11/04 01:53:35;;;;;;;5.05;1.05;;;11.60;99.90;;;;;;5072717;28;20051;-69
2021/11/04 01:56:40;;;;;;;7.72;0.93;;;11.30;99.90;;;;;;5072991;28;20039;-69
2021/11/04 01:59:44;;;;;;;6.03;1.13;;;11.30;99.90;;;;;;5072290;28;20051;-69
2021/11/04 02:02:51;;;;;;;3.75;0.60;;;11.40;99.90;;;;;;5072905;28;20051;-69
2021/11/04 02:05:59;;;;;;;7.00;0.80;;;11.40;99.90;;;;;;5072966;28;20043;-69
2021/11/04 02:09:12;;;;;;;2.72;0.90;;;11.50;99.90;;;;;;5072282;28;20047;-68
2021/11/04 02:12:30;;;;;;;5.53;1.35;;;11.60;99.90;;;;;;5072279;28;20055;-68
2021/11/04 02:15:37;;;;;;;6.40;0.98;;;11.50;99.90;;;;;;5072207;28;20047;-69
2021/11/04 02:18:42;;;;;;;11.98;1.13;;;11.50;99.90;;;;;;5072132;28;20039;-69
2021/11/04 02:21:56;;;;;;;2.88;0.70;;;11.50;99.90;;;;;;5072366;28;20051;-69
2021/11/04 02:25:18;;;;;;;2.72;1.00;;;11.60;99.90;;;;;;5072218;28;20063;-69
2021/11/04 02:28:23;;;;;;;4.15;0.82;;;11.60;99.90;;;;;;5071513;28;20052;-69
2021/11/04 02:31:30;;;;;;;4.05;0.63;;;11.50;99.90;;;;;;5071897;28;20071;-69
2021/11/04 02:34:37;;;;;;;5.60;0.80;;;11.50;99.90;;;;;;5070978;28;20073;-69
2021/11/04 02:37:44;;;;;;;1.58;0.90;;;11.40;99.90;;;;;;5072129;28;20051;-69
2021/11/04 02:40:51;;;;;;;3.22;0.80;;;11.50;99.90;;;;;;5071608;28;20506;-69
2021/11/04 02:43:56;;;;;;;3.70;0.90;;;11.50;99.90;;;;;;5071860;28;20597;-69
2021/11/04 02:47:00;;;;;;;5.28;0.80;;;11.50;99.90;;;;;;5070796;28;20053;-70
2021/11/04 02:50:06;;;;;;;4.07;0.90;;;11.40;99.90;;;;;;5070203;28;20056;-69
2021/11/04 02:53:10;;;;;;;7.70;1.00;;;11.50;99.90;;;;;;5071508;28;20059;-69
2021/11/04 02:56:14;;;;;;;3.85;0.77;;;11.60;99.90;;;;;;5071552;28;20046;-69
2021/11/04 02:59:21;;;;;;;6.55;0.80;;;11.70;99.90;;;;;;5071102;28;20047;-69
2021/11/04 03:02:25;;;;;;;5.68;0.80;;;11.60;99.90;;;;;;5071493;28;20047;-69
2021/11/04 03:05:30;;;;;;;4.60;0.95;;;11.60;99.90;;;;;;5071571;28;20051;-70
2021/11/04 03:08:34;;;;;;;5.80;1.75;;;11.70;99.90;;;;;;5070886;28;20043;-69
2021/11/04 03:11:38;;;;;;;7.25;0.93;;;11.70;99.90;;;;;;5070968;28;20501;-69
2021/11/04 03:14:43;;;;;;;4.05;1.10;;;11.70;99.90;;;;;;5071237;28;20052;-70
2021/11/04 03:17:49;;;;;;;7.95;1.10;;;11.80;99.90;;;;;;5071125;28;20048;-70
2021/11/04 03:20:54;;;;;;;10.52;0.88;;;11.70;99.90;;;;;;5071515;28;20047;-70
2021/11/04 03:24:00;;;;;;;7.05;1.90;;;11.80;99.90;;;;;;5071383;28;20044;-70
2021/11/04 03:27:09;;;;;;;4.35;1.05;;;11.80;99.90;;;;;;5071377;28;20055;-69
2021/11/04 03:30:17;;;;;;;3.58;1.20;;;11.80;99.90;;;;;;5070869;28;20390;-69
2021/11/04 03:33:21;;;;;;;3.55;0.98;;;11.90;99.90;;;;;;5070898;28;20047;-69
2021/11/04 03:36:26;;;;;;;5.60;1.08;;;12.00;99.90;;;;;;5070965;28;20150;-69
2021/11/04 03:39:30;;;;;;;4.10;1.00;;;12.00;99.90;;;;;;5069608;28;20048;-69
2021/11/04 03:42:34;;;;;;;14.02;2.17;;;11.90;99.90;;;;;;5070265;28;20052;-69
2021/11/04 03:45:39;;;;;;;8.88;1.30;;;11.90;99.90;;;;;;5070915;28;20047;-69
2021/11/04 03:48:44;;;;;;;3.67;1.20;;;11.80;99.90;;;;;;5070239;28;20305;-69
2021/11/04 03:51:51;;;;;;;13.75;2.25;;;11.90;99.90;;;;;;5070516;28;20039;-69
2021/11/04 03:54:56;;;;;;;12.02;1.63;;;11.90;99.90;;;;;;5070309;28;20051;-69
2021/11/04 03:58:01;;;;;;;12.35;1.20;;;11.80;99.90;;;;;;5070235;28;20035;-70
2021/11/04 04:01:06;;;;;;;9.68;1.65;;;11.80;99.90;;;;;;5070470;28;20390;-69
2021/11/04 04:04:10;;;;;;;8.27;1.13;;;11.60;99.90;;;;;;5070331;28;20051;-69
2021/11/04 04:07:14;;;;;;;7.60;1.63;;;11.70;99.90;;;;;;5070615;28;20051;-69
2021/11/04 04:10:18;;;;;;;7.70;1.10;;;11.70;99.90;;;;;;5069896;28;20036;-69
2021/11/04 04:13:22;;;;;;;9.60;1.50;;;11.70;99.90;;;;;;5070188;28;20059;-69
2021/11/04 04:16:27;;;;;;;11.65;1.30;;;11.70;99.90;;;;;;5070149;28;20043;-69
2021/11/04 04:19:30;;;;;;;10.15;1.10;;;11.70;99.90;;;;;;5069978;28;20044;-69
2021/11/04 04:22:35;;;;;;;12.02;1.33;;;11.80;99.90;;;;;;5070501;28;20051;-69
2021/11/04 04:25:40;;;;;;;12.77;1.35;;;11.80;99.90;;;;;;5070080;28;20059;-69
2021/11/04 04:28:43;;;;;;;7.43;1.20;;;11.80;99.90;;;;;;5069695;28;20600;-69
2021/11/04 04:31:48;;;;;;;6.80;0.95;;;11.70;99.90;;;;;;5070181;28;20044;-69
2021/11/04 04:34:53;;;;;;;9.80;0.95;;;11.60;99.90;;;;;;5070219;28;20051;-69
2021/11/04 04:37:57;;;;;;;5.85;1.33;;;11.50;99.90;;;;;;5070450;28;20501;-69
2021/11/04 04:41:02;;;;;;;6.22;1.00;;;11.50;99.90;;;;;;5069035;28;20051;-69
2021/11/04 04:44:06;;;;;;;6.55;1.25;;;11.40;99.90;;;;;;5070323;28;20047;-70
2021/11/04 04:47:09;;;;;;;10.50;1.73;;;11.20;99.90;;;;;;5070250;28;20045;-69
2021/11/04 04:50:14;;;;;;;11.90;1.63;;;11.10;99.90;;;;;;5069863;28;20047;-69
2021/11/04 04:53:18;;;;;;;11.10;1.40;;;11.10;99.90;;;;;;5070038;28;20517;-69
2021/11/04 04:56:22;;;;;;;14.93;1.40;;;11.20;99.90;;;;;;5069726;28;20035;-70
2021/11/04 04:59:26;;;;;;;11.77;1.77;;;11.30;99.90;;;;;;5072712;28;20040;-70
2021/11/04 05:02:30;;;;;;;11.13;1.63;;;11.40;99.90;;;;;;5073863;28;20055;-69
2021/11/04 05:05:34;;;;;;;8.68;1.60;;;11.50;99.90;;;;;;5073556;28;20087;-71
2021/11/04 05:08:38;;;;;;;9.48;1.13;;;11.40;99.90;;;;;;5073016;28;20043;-70
2021/11/04 05:11:42;;;;;;;9.52;1.52;;;11.30;99.90;;;;;;5072921;28;20043;-70
2021/11/04 05:14:46;;;;;;;6.75;1.27;;;11.40;99.90;;;;;;5073676;28;20044;-69
2021/11/04 05:17:51;;;;;;;13.77;2.40;;;11.60;99.90;;;;;;5073536;28;20054;-70
2021/11/04 05:20:55;;;;;;;6.75;1.40;;;11.80;99.90;;;;;;5073134;28;20047;-70
2021/11/04 05:23:59;;;;;;;12.88;1.73;;;11.70;99.90;;;;;;5073306;28;20039;-70
2021/11/04 05:27:05;;;;;;;12.20;1.55;;;11.60;99.90;;;;;;5073208;28;20048;-70
2021/11/04 05:30:09;;;;;;;6.72;1.30;;;11.60;99.90;;;;;;5072881;28;20394;-70
2021/11/04 05:33:13;;;;;;;9.27;1.55;;;11.80;99.90;;;;;;5073401;28;20047;-70
2021/11/04 05:36:17;;;;;;;8.02;1.30;;;11.90;99.90;;;;;;5073544;28;20493;-70
2021/11/04 05:39:21;;;;;;;7.30;2.10;;;11.90;99.90;;;;;;5073284;28;20044;-70
2021/11/04 05:42:25;;;;;;;12.38;1.92;;;11.80;99.90;;;;;;5072628;28;20048;-70
2021/11/04 05:45:30;;;;;;;7.05;1.30;;;11.60;99.90;;;;;;5072937;28;20386;-70
2021/11/04 05:48:34;;;;;;;7.85;1.60;;;11.50;99.90;;;;;;5073090;28;20052;-70
2021/11/04 05:51:38;;;;;;;10.07;1.33;;;11.50;99.90;;;;;;5071796;28;20043;-70
2021/11/04 05:54:42;;;;;;;9.00;1.13;;;11.60;99.90;;;;;;5073043;28;20040;-70
2021/11/04 05:57:46;;;;;;;7.60;1.95;;;11.60;99.90;;;;;;5072585;28;20043;-69
2021/11/04 06:00:50;;;;;;;12.38;1.17;;;11.60;99.90;;;;;;5073007;28;20051;-69
2021/11/04 06:03:55;;;;;;;17.50;1.95;;;11.50;99.90;;;;;;5073099;28;20386;-70
2021/11/04 06:06:59;;;;;;;10.85;1.38;;;11.50;99.90;;;;;;5072944;28;20316;-70
2021/11/04 06:10:04;;;;;;;11.23;1.40;;;11.50;99.90;;;;;;5071484;28;20584;-70
2021/11/04 06:13:07;;;;;;;8.30;1.30;;;11.50;99.90;;;;;;5072499;28;20036;-70
2021/11/04 06:16:14;;;;;;;7.90;1.23;;;11.30;99.90;;;;;;5072829;28;20048;-69
2021/11/04 06:19:19;;;;;;;8.50;2.80;;;11.20;99.90;;;;;;5072605;28;20043;-69
2021/11/04 06:22:23;;;;;;;6.93;1.45;;;11.20;99.90;;;;;;5069350;28;20048;-69
2021/11/04 06:25:28;;;;;;;7.13;1.20;;;11.10;99.90;;;;;;5072638;28;20043;-70
2021/11/04 06:28:32;;;;;;;10.40;1.65;;;11.30;99.90;;;;;;5072266;28;20043;-70
2021/11/04 06:31:36;;;;;;;8.40;1.02;;;11.30;99.90;;;;;;5069267;28;20394;-70
2021/11/04 06:34:40;;;;;;;16.23;1.20;;;11.40;99.90;;;;;;5072341;28;20585;-70
2021/11/04 06:37:44;;;;;;;7.03;1.30;;;11.50;99.90;;;;;;5072281;28;20052;-70
2021/11/04 06:40:49;;;;;;;9.65;1.85;;;11.50;99.90;;;;;;5065774;28;20051;-70
2021/11/04 06:43:53;;;;;;;11.60;1.30;;;11.60;99.90;;;;;;5064298;28;20481;-70
2021/11/04 06:47:01;;;;;;;8.75;1.38;;;11.50;99.90;;;;;;5072010;28;20055;-71
2021/11/04 06:50:06;;;;;;;10.00;1.25;;;11.50;99.90;;;;;;5071576;28;20061;-70
2021/11/04 06:53:11;;;;;;;12.90;1.27;;;11.40;99.90;;;;;;5066754;28;20048;-70
2021/11/04 06:56:19;;;;;;;7.28;1.30;;;11.80;99.90;;;;;;5052077;28;20052;-70
2021/11/04 06:59:27;;;;;;;4.60;1.42;;;13.10;99.90;;;;;;5051600;28;20040;-70
2021/11/04 07:02:35;;;;;;;5.05;1.10;;;13.40;99.90;;;;;;5054609;28;20047;-70
2021/11/04 07:05:45;;;;;;;6.65;1.30;;;14.30;99.90;;;;;;5054425;28;20039;-70
2021/11/04 07:08:58;;;;;;;10.00;2.03;;;15.70;99.90;;;;;;5057071;28;20044;-70
2021/11/04 07:12:04;;;;;;;6.30;1.40;;;17.80;99.90;;;;;;5070464;28;20043;-71
2021/11/04 07:15:08;;;;;;;5.80;1.50;;;19.90;99.90;;;;;;5070412;28;20051;-71
2021/11/04 07:18:13;;;;;;;5.95;1.38;;;22.10;99.90;;;;;;5069599;28;20435;-70
2021/11/04 07:21:43;;;;;;;10.48;1.33;;;22.20;99.60;;;;;;5068797;28;20040;-70
2021/11/04 07:25:00;;;;;;;10.18;1.40;;;21.20;99.90;;;;;;5065135;28;20043;-70
2021/11/04 07:28:15;;;;;;;5.20;1.17;;;20.90;99.10;;;;;;5061216;28;20868;-70
2021/11/04 07:31:21;;;;;;;9.95;1.42;;;22.40;98.50;;;;;;5070629;28;20059;-71
2021/11/04 07:34:29;;;;;;;3.92;0.98;;;23.50;96.70;;;;;;5062353;28;20072;-70
2021/11/04 07:37:34;;;;;;;5.53;1.33;;;25.00;94.10;;;;;;5057517;28;20043;-71
2021/11/04 07:40:39;;;;;;;6.03;1.48;;;25.50;92.40;;;;;;5069001;28;20039;-70
2021/11/04 07:43:47;;;;;;;4.78;1.15;;;25.10;91.20;;;;;;5070196;28;20390;-70
2021/11/04 07:46:52;;;;;;;6.53;1.40;;;24.80;91.20;;;;;;5068541;28;20060;-71
2021/11/04 07:49:56;;;;;;;8.27;1.05;;;25.60;90.60;;;;;;5056662;28;20234;-71
2021/11/04 07:53:02;;;;;;;6.78;1.50;;;26.00;88.80;;;;;;5061377;28;20048;-71
2021/11/04 07:56:08;;;;;;;4.78;1.33;;;26.30;88.40;;;;;;5063984;28;20043;-71
2021/11/04 07:59:13;;;;;;;6.78;1.13;;;26.80;85.50;;;;;;5059653;28;20036;-70
2021/11/04 08:02:17;;;;;;;5.93;1.20;;;26.70;85.70;;;;;;5067074;28;20044;-71
2021/11/04 08:05:20;;;;;;;8.43;1.08;;;27.90;85.20;;;;;;5051711;28;20048;-71
2021/11/04 08:08:25;;;;;;;7.10;1.08;;;29.30;82.70;;;;;;5065277;28;20047;-71
2021/11/04 08:11:29;;;;;;;11.48;1.27;;;29.70;79.80;;;;;;5067674;28;20040;-69
2021/11/04 08:14:35;;;;;;;3.85;1.30;;;29.50;81.00;;;;;;5065757;28;20036;-72
2021/11/04 08:17:39;;;;;;;11.07;1.60;;;29.80;78.40;;;;;;5062380;28;20040;-71
2021/11/04 08:20:44;;;;;;;5.43;1.33;;;27.10;77.90;;;;;;5059885;28;20036;-69
2021/11/04 08:23:48;;;;;;;11.20;1.80;;;23.90;83.00;;;;;;5067163;28;20048;-70
2021/11/04 08:26:52;;;;;;;6.90;1.80;;;22.40;93.00;;;;;;5069925;28;20044;-68
2021/11/04 08:29:56;;;;;;;6.68;2.20;;;21.20;94.70;;;;;;5068584;28;20055;-70
2021/11/04 08:33:00;;;;;;;10.48;2.08;;;22.80;92.40;;;;;;5050410;28;20040;-70
2021/11/04 08:36:04;;;;;;;12.30;1.92;;;25.30;88.70;;;;;;5061111;28;20047;-71
2021/11/04 08:39:09;;;;;;;5.88;1.60;;;25.30;91.90;;;;;;5066315;28;20036;-71
2021/11/04 08:42:15;;;;;;;8.13;1.88;;;23.60;92.50;;;;;;5063205;28;20068;-71
2021/11/04 08:45:22;;;;;;;4.93;1.40;;;20.90;96.70;;;;;;5065302;28;20036;-71
2021/11/04 08:48:27;;;;;;;10.10;2.55;;;20.50;94.40;;;;;;5052757;28;20399;-71
2021/11/04 08:51:32;;;;;;;19.60;8.95;;;19.90;96.00;;;;;;5065607;28;20402;-71
2021/11/04 08:54:37;;;;;;;6.18;2.38;;;20.30;97.40;;;;;;5071947;28;20039;-70
2021/11/04 08:57:40;;;;;;;7.57;2.65;;;19.50;98.50;;;;;;5063522;28;20054;-70
2021/11/04 09:00:45;;;;;;;7.68;1.80;;;17.80;99.90;;;;;;5067931;28;20051;-70
2021/11/04 09:03:49;;;;;;;6.95;3.00;;;18.00;99.90;;;;;;5067234;28;20212;-70
2021/11/04 09:06:54;;;;;;;10.15;3.50;;;19.20;98.60;;;;;;5063180;28;20052;-70
2021/11/04 09:09:58;;;;;;;7.75;1.90;;;20.70;97.90;;;;;;5064528;28;20056;-69
2021/11/04 09:13:02;;;;;;;4.00;1.23;;;22.70;96.40;;;;;;5064469;28;20048;-70
2021/11/04 09:16:06;;;;;;;6.65;1.33;;;24.60;91.50;;;;;;5064258;28;21337;-70
2021/11/04 09:19:10;;;;;;;5.18;0.90;;;26.80;86.20;;;;;;5064702;28;20047;-70
2021/11/04 09:22:15;;;;;;;5.07;1.50;;;29.60;83.00;;;;;;5065602;28;20052;-70
2021/11/04 09:25:22;;;;;;;7.60;2.20;;;26.50;84.50;;;;;;5058492;28;20048;-69
2021/11/04 09:28:26;;;;;;;12.98;3.28;;;23.70;91.70;;;;;;5057927;28;20051;-70
2021/11/04 09:31:31;;;;;;;10.95;2.50;;;21.50;95.90;;;;;;5070914;28;20055;-70
2021/11/04 09:34:35;;;;;;;8.48;2.38;;;20.40;98.30;;;;;;5063368;28;20052;-70
2021/11/04 09:37:41;;;;;;;8.00;1.73;;;21.10;97.50;;;;;;5066826;28;20056;-69
2021/11/04 09:40:45;;;;;;;9.07;2.22;;;20.60;98.50;;;;;;5063213;28;20044;-70
2021/11/04 09:43:50;;;;;;;6.13;2.03;;;19.70;99.10;;;;;;5066880;28;20047;-70
2021/11/04 09:46:54;;;;;;;10.93;2.60;;;20.00;98.40;;;;;;5060440;28;20063;-70
2021/11/04 09:49:59;;;;;;;8.23;2.50;;;19.90;97.70;;;;;;5066290;28;20375;-70
2021/11/04 09:53:05;;;;;;;5.00;1.40;;;20.80;98.70;;;;;;5063205;28;20044;-70
2021/11/04 09:56:10;;;;;;;4.80;1.20;;;22.70;95.10;;;;;;5061355;28;20044;-70
2021/11/04 09:59:14;;;;;;;6.03;1.15;;;25.40;91.30;;;;;;5060985;28;20039;-70
2021/11/04 10:02:20;;;;;;;6.28;1.30;;;27.50;87.70;;;;;;5068166;28;20486;-70
2021/11/04 10:05:25;;;;;;;5.25;1.25;;;26.50;87.40;;;;;;5065334;28;20055;-70
2021/11/04 10:08:38;;;;;;;2.72;1.15;;;23.20;90.30;;;;;;5065981;28;20055;-70
2021/11/04 10:11:46;;;;;;;6.55;1.48;;;22.30;91.90;;;;;;5069155;28;20048;-70
2021/11/04 10:14:50;;;;;;;7.05;1.73;;;20.90;92.60;;;;;;5069708;28;20055;-70
2021/11/04 10:18:13;;;;;;;7.03;1.85;;;20.40;93.10;;;;;;5068931;28;20051;-70
2021/11/04 10:21:28;;;;;;;6.65;1.30;;;20.50;92.90;;;;;;5063073;28;20036;-72
2021/11/04 10:24:32;;;;;;;6.68;1.40;;;21.60;91.30;;;;;;5061675;28;20040;-69
2021/11/04 10:27:38;;;;;;;7.30;1.50;;;22.00;91.80;;;;;;5065257;28;20039;-69
2021/11/04 10:30:43;;;;;;;8.88;1.67;;;21.90;91.60;;;;;;5057801;28;20037;-71
2021/11/04 10:33:50;;;;;;;5.95;1.65;;;19.90;94.50;;;;;;5064367;28;20119;-71
2021/11/04 10:37:22;;;;;;;6.50;1.80;;;19.60;94.50;;;;;;5061445;28;20056;-71
2021/11/04 10:40:26;;;;;;;11.70;3.30;;;20.50;94.30;;;;;;5067030;28;20051;-71
2021/11/04 10:43:30;;;;;;;9.00;2.08;;;19.90;94.70;;;;;;5071096;28;20039;-71
2021/11/04 10:46:47;;;;;;;5.90;1.92;;;20.60;94.40;;;;;;5066995;28;20079;-72
2021/11/04 10:49:51;;;;;;;5.65;1.60;;;21.30;94.20;;;;;;5070412;28;20051;-69
2021/11/04 10:53:04;;;;;;;8.32;1.88;;;21.50;92.90;;;;;;5053227;28;20048;-71
2021/11/04 10:56:08;;;;;;;6.20;1.50;;;21.30;92.70;;;;;;5070917;28;20395;-71
2021/11/04 10:59:16;;;;;;;8.93;3.20;;;21.30;93.10;;;;;;5070726;28;20048;-71
2021/11/04 11:02:21;;;;;;;5.60;1.10;;;22.30;92.00;;;;;;5070966;28;20402;-71
2021/11/04 11:05:27;;;;;;;4.40;1.05;;;22.30;91.90;;;;;;5070595;28;20052;-71
2021/11/04 11:08:32;;;;;;;8.45;1.00;;;20.60;93.50;;;;;;5066567;28;20494;-71
2021/11/04 11:11:39;;;;;;;8.55;2.30;;;19.40;95.10;;;;;;5050812;28;20036;-71
2021/11/04 11:14:44;;;;;;;6.10;1.50;;;18.90;95.60;;;;;;5065794;28;20048;-71
2021/11/04 11:17:49;;;;;;;5.10;1.60;;;19.00;96.20;;;;;;5067658;28;20039;-71
2021/11/04 11:20:53;;;;;;;9.68;1.13;;;20.80;94.70;;;;;;5064034;28;20382;-71
2021/11/04 11:23:59;;;;;;;4.25;1.25;;;22.20;93.40;;;;;;5066416;28;20055;-71
2021/11/04 11:27:08;;;;;;;6.82;1.73;;;23.60;91.80;;;;;;5070175;28;20285;-71
2021/11/04 11:30:13;;;;;;;6.53;0.90;;;21.80;92.40;;;;;;5070218;28;20059;-71
2021/11/04 11:33:22;;;;;;;5.45;1.30;;;19.30;95.20;;;;;;5069361;28;20387;-72
2021/11/04 11:36:27;;;;;;;9.88;0.85;;;17.50;98.70;;;;;;5050989;28;20048;-71
2021/11/04 11:39:43;;;;;;;4.97;1.02;;;16.80;99.90;;;;;;5060367;28;20047;-71
2021/11/04 11:43:03;;;;;;;5.97;1.80;;;16.80;99.90;;;;;;5070270;28;20063;-71
2021/11/04 11:46:07;;;;;;;9.25;1.80;;;17.10;99.90;;;;;;5050338;28;20051;-71
2021/11/04 11:49:11;;;;;;;11.48;3.72;;;16.90;99.90;;;;;;5061162;28;20067;-71
2021/11/04 11:52:44;;;;;;;5.25;1.13;;;16.50;99.90;;;;;;5058351;28;20059;-71
2021/11/04 11:55:49;;;;;;;7.95;1.45;;;16.20;99.90;;;;;;5070436;28;20036;-71
2021/11/04 11:59:17;;;;;;;8.00;1.88;;;16.00;99.90;;;;;;5049939;28;20047;-70
2021/11/04 12:02:42;;;;;;;4.85;1.35;;;15.80;99.90;;;;;;5065282;28;20033;-71
2021/11/04 12:05:46;;;;;;;7.60;2.65;;;16.20;99.90;;;;;;5064213;28;20052;-72
2021/11/04 12:09:00;;;;;;;8.88;1.70;;;16.50;99.90;;;;;;5068632;28;20051;-71
2021/11/04 12:12:06;;;;;;;7.97;1.55;;;16.90;99.90;;;;;;5061747;28;20044;-72
2021/11/04 12:15:11;;;;;;;9.40;1.83;;;17.60;99.90;;;;;;5057011;28;20052;-73
2021/11/04 12:18:19;;;;;;;5.05;1.80;;;18.10;99.90;;;;;;5059847;28;20505;-72
2021/11/04 12:21:25;;;;;;;15.95;2.13;;;17.90;99.90;;;;;;5060117;28;20043;-71
2021/11/04 12:24:30;;;;;;;9.68;2.63;;;17.20;99.90;;;;;;5060698;28;20047;-71
2021/11/04 12:27:47;;;;;;;10.90;2.42;;;16.30;99.90;;;;;;5052042;28;20051;-72
2021/11/04 12:30:52;;;;;;;7.85;1.90;;;15.10;99.90;;;;;;5065429;28;20046;-72
2021/11/04 12:33:58;;;;;;;8.65;1.60;;;14.50;99.90;;;;;;5063737;28;20059;-72
2021/11/04 12:37:09;;;;;;;8.70;1.67;;;14.40;99.90;;;;;;5063415;28;20047;-71
2021/11/04 12:40:14;;;;;;;11.75;1.80;;;14.50;99.90;;;;;;5056283;28;20040;-71
2021/11/04 12:43:21;;;;;;;6.93;1.92;;;15.90;99.90;;;;;;5064534;28;20059;-71
2021/11/04 12:46:27;;;;;;;8.98;3.28;;;18.00;99.90;;;;;;5068420;28;20036;-70
2021/11/04 12:49:35;;;;;;;7.25;2.10;;;20.50;99.90;;;;;;5069027;28;20044;-71
2021/11/04 12:52:40;;;;;;;6.97;2.05;;;21.60;99.90;;;;;;5064628;28;20047;-71
2021/11/04 12:55:50;;;;;;;4.38;1.45;;;22.90;99.90;;;;;;5062552;28;20040;-70
2021/11/04 12:58:54;;;;;;;7.43;1.33;;;24.60;99.20;;;;;;5058332;28;20035;-70
2021/11/04 13:02:05;;;;;;;4.63;1.35;;;24.70;97.90;;;;;;5058349;28;20039;-70
2021/11/04 13:05:12;;;;;;;3.90;1.48;;;24.20;97.70;;;;;;5060602;28;20040;-69
2021/11/04 13:08:19;;;;;;;7.70;2.00;;;24.10;99.60;;;;;;5060447;28;20521;-69
2021/11/04 13:11:23;;;;;;;5.95;1.63;;;24.80;98.10;;;;;;5060167;28;20052;-70
2021/11/04 13:14:27;;;;;;;6.93;1.55;;;26.30;97.00;;;;;;5060091;28;20043;-70
2021/11/04 13:17:43;;;;;;;5.00;1.45;;;28.20;95.20;;;;;;5059770;28;20044;-69
2021/11/04 13:20:49;;;;;;;5.88;1.52;;;28.90;91.80;;;;;;5053122;28;20056;-71
2021/11/04 13:23:54;;;;;;;5.00;1.65;;;27.40;93.30;;;;;;5057569;28;20500;-72
2021/11/04 13:26:57;;;;;;;5.82;1.63;;;26.20;94.60;;;;;;5064450;28;20048;-72
2021/11/04 13:30:03;;;;;;;4.40;1.20;;;26.80;93.50;;;;;;5069459;28;20043;-72
2021/11/04 13:33:08;;;;;;;6.15;1.65;;;26.10;93.90;;;;;;5070267;28;20043;-71
2021/11/04 13:36:22;;;;;;;7.35;1.85;;;25.60;93.80;;;;;;5062704;28;20040;-72
2021/11/04 13:39:31;;;;;;;7.82;1.73;;;24.80;94.00;;;;;;5062555;28;20051;-72
2021/11/04 13:42:37;;;;;;;11.20;2.25;;;23.20;95.30;;;;;;5064112;28;20387;-72
2021/11/04 13:45:43;;;;;;;7.10;1.77;;;22.20;97.00;;;;;;5068939;28;20509;-72
2021/11/04 13:48:56;;;;;;;7.50;1.67;;;22.40;97.90;;;;;;5070542;28;20032;-72
2021/11/04 13:52:01;;;;;;;7.65;1.73;;;23.80;96.00;;;;;;5053608;28;20039;-70
2021/11/04 13:55:07;;;;;;;6.40;1.38;;;25.10;94.80;;;;;;5059164;28;20051;-72
2021/11/04 13:58:11;;;;;;;10.55;1.77;;;24.80;94.00;;;;;;5072014;28;20055;-71
2021/11/04 14:01:16;;;;;;;11.75;1.80;;;23.80;94.40;;;;;;5063670;28;20036;-71
2021/11/04 14:04:20;;;;;;;10.95;1.70;;;22.80;95.80;;;;;;5064481;28;20490;-71
2021/11/04 14:07:34;;;;;;;6.07;1.63;;;22.20;96.60;;;;;;5071276;28;20044;-72
2021/11/04 14:10:39;;;;;;;9.75;1.75;;;22.40;96.20;;;;;;5066696;28;20494;-72
2021/11/04 14:14:07;;;;;;;7.20;1.73;;;23.80;94.90;;;;;;5065135;28;20043;-69
2021/11/04 14:17:13;;;;;;;7.82;1.30;;;25.00;93.60;;;;;;5067986;28;20054;-70
2021/11/04 14:20:18;;;;;;;8.57;1.33;;;25.40;91.60;;;;;;5069585;28;20039;-69
2021/11/04 14:23:23;;;;;;;8.70;1.80;;;24.30;92.80;;;;;;5051680;28;20048;-70
2021/11/04 14:26:36;;;;;;;7.05;1.75;;;23.30;94.50;;;;;;5065163;28;20051;-71
2021/11/04 14:29:44;;;;;;;7.72;1.95;;;22.40;94.90;;;;;;5071436;28;20305;-72
2021/11/04 14:32:53;;;;;;;5.50;1.85;;;21.50;95.80;;;;;;5060124;28;20541;-72
2021/11/04 14:36:09;;;;;;;6.95;1.52;;;20.90;96.00;;;;;;5052383;28;20048;-71
2021/11/04 14:39:22;;;;;;;5.60;1.60;;;20.30;97.10;;;;;;5054073;28;20047;-71
2021/11/04 14:42:31;;;;;;;10.50;1.38;;;19.70;98.70;;;;;;5052138;28;20234;-71
2021/11/04 14:45:36;;;;;;;8.35;1.70;;;19.00;99.00;;;;;;5051089;28;20056;-71
2021/11/04 14:48:40;;;;;;;9.38;1.50;;;18.50;99.40;;;;;;5052533;28;20063;-71
2021/11/04 14:51:45;;;;;;;11.00;1.55;;;18.10;99.90;;;;;;5051081;28;20036;-71
2021/11/04 14:54:49;;;;;;;8.52;1.63;;;17.90;99.90;;;;;;5051827;28;20052;-71
2021/11/04 14:57:55;;;;;;;9.35;1.63;;;17.70;99.90;;;;;;5051533;28;20052;-71
2021/11/04 15:01:00;;;;;;;8.18;1.85;;;17.40;99.90;;;;;;5052052;28;20529;-71
2021/11/04 15:04:04;;;;;;;7.15;1.65;;;17.30;99.90;;;;;;5051671;28;20502;-71
2021/11/04 15:07:08;;;;;;;7.40;1.85;;;17.30;99.90;;;;;;5065842;28;20048;-71
2021/11/04 15:10:12;;;;;;;10.93;1.85;;;17.20;99.90;;;;;;5071365;28;20040;-71
2021/11/04 15:13:17;;;;;;;8.57;1.40;;;17.20;99.90;;;;;;5071752;28;20393;-71
2021/11/04 15:16:23;;;;;;;8.18;1.95;;;17.10;99.90;;;;;;5066783;28;20043;-70
2021/11/04 15:19:27;;;;;;;6.15;1.20;;;17.10;99.90;;;;;;5066488;28;20344;-71
2021/11/04 15:22:31;;;;;;;9.93;1.58;;;17.30;99.90;;;;;;5063396;28;20043;-71
2021/11/04 15:25:36;;;;;;;6.40;1.40;;;17.20;99.90;;;;;;5062010;28;20047;-71
2021/11/04 15:28:42;;;;;;;7.63;1.42;;;16.90;99.90;;;;;;5060759;28;20036;-71
2021/11/04 15:31:46;;;;;;;9.73;1.95;;;16.60;99.90;;;;;;5065032;28;20040;-71
2021/11/04 15:34:50;;;;;;;11.48;1.95;;;16.40;99.90;;;;;;5067506;28;20127;-71
2021/11/04 15:37:54;;;;;;;7.60;1.98;;;16.20;99.90;;;;;;5058453;28;20059;-71
2021/11/04 15:40:58;;;;;;;10.18;1.73;;;16.00;99.90;;;;;;5061061;28;20378;-71
2021/11/04 15:44:02;;;;;;;7.22;1.60;;;15.80;99.90;;;;;;5063398;28;20060;-71
2021/11/04 15:47:08;;;;;;;9.23;2.33;;;15.50;99.90;;;;;;5059115;28;20040;-71
2021/11/04 15:50:12;;;;;;;7.80;2.28;;;15.30;99.90;;;;;;5057975;28;20044;-71
2021/11/04 15:53:16;;;;;;;7.75;1.55;;;15.10;99.90;;;;;;5069002;28;20624;-71
2021/11/04 15:56:21;;;;;;;6.82;1.48;;;14.90;99.90;;;;;;5057460;28;20040;-71
2021/11/04 15:59:25;;;;;;;19.33;5.72;;;14.70;99.90;;;;;;5063592;28;20047;-71
2021/11/04 16:02:29;;;;;;;13.07;5.30;;;14.50;99.90;;;;;;5066902;28;20103;-71
2021/11/04 16:05:33;;;;;;;17.27;5.50;;;14.40;99.90;;;;;;5063648;28;20052;-71
2021/11/04 16:08:37;;;;;;;17.63;9.55;;;14.30;99.90;;;;;;5057686;28;20052;-71